Time;durP1;ratioP1;P1;durP2;ratioP2;P2;SDS_P1;SDS_P2;PMS_P1;PMS_P2;Temp;Humidity;BMP_temperature;BMP_pressure;BME280_temperature;BME280_humidity;BME280_pressure;Samples;Min_cycle;Max_cycle;Signal;HPM_P1;HPM_P2
2022/12/07 00:00:31;;;;;;;15.27;1.80;;;;;;;;;;4982756;28;20874;-68
2022/12/07 00:02:57;;;;;;;13.60;1.88;;;;;;;;;;5000038;28;20042;-68
2022/12/07 00:05:22;;;;;;;11.68;1.33;;;;;;;;;;4982105;28;20048;-69
2022/12/07 00:07:47;;;;;;;18.75;1.65;;;;;;;;;;5003887;28;20047;-69
2022/12/07 00:10:13;;;;;;;9.38;1.20;;;;;;;;;;5003131;28;20662;-69
2022/12/07 00:12:40;;;;;;;10.77;1.40;;;;;;;;;;4964193;28;20033;-69
2022/12/07 00:15:06;;;;;;;16.52;2.08;;;;;;;;;;4984759;28;20033;-65
2022/12/07 00:17:33;;;;;;;8.77;1.75;;;;;;;;;;5001521;28;20174;-64
2022/12/07 00:20:01;;;;;;;8.95;1.67;;;;;;;;;;5002730;28;20044;-65
2022/12/07 00:22:26;;;;;;;9.25;1.00;;;;;;;;;;4984341;28;20040;-64
2022/12/07 00:24:52;;;;;;;9.73;1.27;;;;;;;;;;5002119;28;20033;-64
2022/12/07 00:27:17;;;;;;;8.27;1.40;;;;;;;;;;4989311;28;20076;-64
2022/12/07 00:29:45;;;;;;;10.15;1.15;;;;;;;;;;4984186;28;20114;-64
2022/12/07 00:32:10;;;;;;;9.73;1.00;;;;;;;;;;5000572;28;20044;-64
2022/12/07 00:34:36;;;;;;;9.40;1.10;;;;;;;;;;5001460;28;20048;-64
2022/12/07 00:37:01;;;;;;;11.32;1.45;;;;;;;;;;5000865;28;20259;-64
2022/12/07 00:39:27;;;;;;;20.10;2.50;;;;;;;;;;5002485;28;20949;-64
2022/12/07 00:41:52;;;;;;;17.25;2.33;;;;;;;;;;4998993;28;20825;-65
2022/12/07 00:44:17;;;;;;;17.73;1.77;;;;;;;;;;5001885;28;20048;-64
2022/12/07 00:46:45;;;;;;;26.85;3.33;;;;;;;;;;4967631;28;20595;-65
2022/12/07 00:49:10;;;;;;;18.23;2.72;;;;;;;;;;5002610;28;20045;-65
2022/12/07 00:51:36;;;;;;;18.25;2.40;;;;;;;;;;4999428;28;20641;-64
2022/12/07 00:54:01;;;;;;;21.02;2.97;;;;;;;;;;4988293;28;20040;-65
2022/12/07 00:56:28;;;;;;;33.67;3.20;;;;;;;;;;5002964;28;20029;-65
2022/12/07 00:58:54;;;;;;;16.02;2.85;;;;;;;;;;4980580;28;20042;-65
2022/12/07 01:01:20;;;;;;;30.05;3.38;;;;;;;;;;5003205;28;20069;-65
2022/12/07 01:03:45;;;;;;;27.42;3.00;;;;;;;;;;4997825;28;20029;-65
2022/12/07 01:06:13;;;;;;;26.15;3.88;;;;;;;;;;5001789;28;20033;-65
2022/12/07 01:08:39;;;;;;;26.33;2.67;;;;;;;;;;5000411;28;20045;-65
2022/12/07 01:11:05;;;;;;;24.70;2.30;;;;;;;;;;5001049;28;20132;-65
2022/12/07 01:13:31;;;;;;;15.07;1.80;;;;;;;;;;4998728;28;20037;-66
2022/12/07 01:15:59;;;;;;;19.08;2.47;;;;;;;;;;4984541;28;20047;-65
2022/12/07 01:18:25;;;;;;;22.00;2.47;;;;;;;;;;4969945;28;20038;-65
2022/12/07 01:21:10;;;;;;;19.40;1.70;;;;;;;;;;4981943;28;20033;-65
2022/12/07 01:23:36;;;;;;;15.38;2.00;;;;;;;;;;4987354;28;20047;-66
2022/12/07 01:26:05;;;;;;;23.17;2.97;;;;;;;;;;5001468;28;20611;-65
2022/12/07 01:28:30;;;;;;;22.70;3.10;;;;;;;;;;5000797;28;20725;-65
2022/12/07 01:30:58;;;;;;;22.40;2.45;;;;;;;;;;5001636;28;20075;-65
2022/12/07 01:33:24;;;;;;;36.95;4.32;;;;;;;;;;5000679;28;20188;-65
2022/12/07 01:35:49;;;;;;;18.15;2.42;;;;;;;;;;5001470;28;20056;-64
2022/12/07 01:38:14;;;;;;;18.67;2.33;;;;;;;;;;5000732;28;20819;-64
2022/12/07 01:40:40;;;;;;;26.40;2.42;;;;;;;;;;4972556;28;20045;-67
2022/12/07 01:43:14;;;;;;;19.73;2.83;;;;;;;;;;4999796;28;20933;-68
2022/12/07 01:45:41;;;;;;;18.58;2.55;;;;;;;;;;4997837;28;20069;-66
2022/12/07 01:48:08;;;;;;;21.80;3.17;;;;;;;;;;4999991;28;20033;-67
2022/12/07 01:50:34;;;;;;;22.70;2.58;;;;;;;;;;5001382;28;20053;-67
2022/12/07 01:53:00;;;;;;;26.08;2.55;;;;;;;;;;4998222;28;20049;-67
2022/12/07 01:55:26;;;;;;;11.93;2.00;;;;;;;;;;5000443;28;20037;-67
2022/12/07 01:57:53;;;;;;;13.85;2.20;;;;;;;;;;5001124;28;20037;-66
2022/12/07 02:00:18;;;;;;;29.63;3.20;;;;;;;;;;4998889;28;20832;-66
2022/12/07 02:02:56;;;;;;;22.63;2.65;;;;;;;;;;4997760;28;20032;-66
2022/12/07 02:05:24;;;;;;;22.00;2.97;;;;;;;;;;4994341;28;20052;-66
2022/12/07 02:07:50;;;;;;;21.10;2.55;;;;;;;;;;5000595;28;20041;-66
2022/12/07 02:10:21;;;;;;;22.20;2.47;;;;;;;;;;4997664;28;20049;-66
2022/12/07 02:12:55;;;;;;;22.85;2.67;;;;;;;;;;4976832;28;20042;-66
2022/12/07 02:15:21;;;;;;;27.88;3.88;;;;;;;;;;4997735;28;20045;-65
2022/12/07 02:17:57;;;;;;;23.35;3.55;;;;;;;;;;4981712;28;20072;-68
2022/12/07 02:20:26;;;;;;;18.42;2.85;;;;;;;;;;4980617;28;20148;-67
2022/12/07 02:23:21;;;;;;;17.15;2.30;;;;;;;;;;5000271;28;20041;-66
2022/12/07 02:26:05;;;;;;;20.70;2.70;;;;;;;;;;4998945;28;20033;-66
2022/12/07 02:28:35;;;;;;;20.80;2.80;;;;;;;;;;5003859;28;20044;-66
2022/12/07 02:31:21;;;;;;;22.65;3.25;;;;;;;;;;5004414;28;26334;-66
2022/12/07 02:33:49;;;;;;;17.08;2.15;;;;;;;;;;5003900;28;20032;-66
2022/12/07 02:36:21;;;;;;;18.10;2.00;;;;;;;;;;4985967;28;20112;-66
2022/12/07 02:38:59;;;;;;;19.00;2.60;;;;;;;;;;4982924;28;20604;-67
2022/12/07 02:41:33;;;;;;;18.85;2.60;;;;;;;;;;5003277;28;20036;-67
2022/12/07 02:44:05;;;;;;;24.30;3.08;;;;;;;;;;5003804;28;20873;-66
2022/12/07 02:46:37;;;;;;;14.43;3.03;;;;;;;;;;4986934;28;20041;-66
2022/12/07 02:49:03;;;;;;;15.02;2.40;;;;;;;;;;4999789;28;20029;-68
2022/12/07 02:51:32;;;;;;;21.77;2.97;;;;;;;;;;4986200;28;20125;-71
2022/12/07 02:54:06;;;;;;;23.25;3.45;;;;;;;;;;5001956;28;22011;-68
2022/12/07 02:56:52;;;;;;;22.63;2.13;;;;;;;;;;5004409;28;20036;-70
2022/12/07 02:59:36;;;;;;;25.67;3.42;;;;;;;;;;4969691;28;20037;-68
2022/12/07 03:02:04;;;;;;;22.48;2.72;;;;;;;;;;5003439;28;20096;-72
2022/12/07 03:04:30;;;;;;;20.30;2.22;;;;;;;;;;5001004;28;20141;-67
2022/12/07 03:07:19;;;;;;;18.88;3.63;;;;;;;;;;5002892;28;20033;-68
2022/12/07 03:10:01;;;;;;;27.90;2.63;;;;;;;;;;4965406;28;21071;-68
2022/12/07 03:12:26;;;;;;;;;;;;;;;;;;4999673;28;20040;-69
2022/12/07 03:15:06;;;;;;;18.02;2.50;;;;;;;;;;4986049;28;20663;-70
2022/12/07 03:17:33;;;;;;;20.23;2.92;;;;;;;;;;5002625;28;20068;-68
2022/12/07 03:20:01;;;;;;;17.42;2.88;;;;;;;;;;5003432;28;20984;-70
2022/12/07 03:22:29;;;;;;;19.83;2.92;;;;;;;;;;5001007;28;20641;-72
2022/12/07 03:24:56;;;;;;;22.55;2.85;;;;;;;;;;5003170;28;20036;-68
2022/12/07 03:27:26;;;;;;;17.60;2.17;;;;;;;;;;5003150;28;20044;-71
2022/12/07 03:29:59;;;;;;;23.50;3.53;;;;;;;;;;4989401;28;20235;-69
2022/12/07 03:32:24;;;;;;;;;;;;;;;;;;4981940;28;20600;-71
2022/12/07 03:34:52;;;;;;;15.27;2.40;;;;;;;;;;5002397;28;20012;-70
2022/12/07 03:37:47;;;;;;;24.27;2.47;;;;;;;;;;5003186;28;20049;-69
2022/12/07 03:40:22;;;;;;;19.55;2.78;;;;;;;;;;4960064;28;20918;-69
2022/12/07 03:42:48;;;;;;;17.85;2.25;;;;;;;;;;5001915;28;21171;-69
2022/12/07 03:45:16;;;;;;;18.90;2.42;;;;;;;;;;4971115;28;20036;-68
2022/12/07 03:47:47;;;;;;;20.38;2.40;;;;;;;;;;5003058;28;20911;-68
2022/12/07 03:50:13;;;;;;;19.63;2.50;;;;;;;;;;4985099;28;20048;-69
2022/12/07 03:52:53;;;;;;;24.40;2.90;;;;;;;;;;5001078;28;20048;-68
2022/12/07 03:55:32;;;;;;;20.13;2.20;;;;;;;;;;5002883;28;20045;-68
2022/12/07 03:58:05;;;;;;;16.65;3.22;;;;;;;;;;4984824;28;20041;-68
2022/12/07 04:00:31;;;;;;;16.40;2.63;;;;;;;;;;5003405;28;20201;-70
2022/12/07 04:02:58;;;;;;;20.98;2.75;;;;;;;;;;5001113;28;20040;-67
2022/12/07 04:05:24;;;;;;;18.00;2.45;;;;;;;;;;5000322;28;20037;-68
2022/12/07 04:07:49;;;;;;;16.42;2.50;;;;;;;;;;5002436;28;20037;-68
2022/12/07 04:10:15;;;;;;;15.13;2.75;;;;;;;;;;4971862;28;20037;-69
2022/12/07 04:12:42;;;;;;;22.17;3.63;;;;;;;;;;4989862;28;20140;-68
2022/12/07 04:15:08;;;;;;;17.25;2.58;;;;;;;;;;4990459;28;20041;-68
2022/12/07 04:17:34;;;;;;;12.00;1.70;;;;;;;;;;5001462;28;20033;-69
2022/12/07 04:19:59;;;;;;;5.05;1.10;;;;;;;;;;5002622;28;20095;-70
2022/12/07 04:22:27;;;;;;;8.63;1.38;;;;;;;;;;4984278;28;20771;-68
2022/12/07 04:24:55;;;;;;;16.58;2.38;;;;;;;;;;5002487;28;20036;-70
2022/12/07 04:27:20;;;;;;;21.35;3.00;;;;;;;;;;5001043;28;20219;-68
2022/12/07 04:29:46;;;;;;;17.55;2.80;;;;;;;;;;4982007;28;20139;-68
2022/12/07 04:32:11;;;;;;;15.90;2.13;;;;;;;;;;4985774;28;20102;-68
2022/12/07 04:34:36;;;;;;;21.83;2.58;;;;;;;;;;4978730;28;20147;-67
2022/12/07 04:37:01;;;;;;;18.30;2.35;;;;;;;;;;5000506;28;20037;-69
2022/12/07 04:39:30;;;;;;;23.60;3.00;;;;;;;;;;5002470;28;20037;-71
2022/12/07 04:41:59;;;;;;;10.63;1.45;;;;;;;;;;4982031;28;20792;-73
2022/12/07 04:44:25;;;;;;;8.63;1.45;;;;;;;;;;4983014;28;20035;-75
2022/12/07 04:46:50;;;;;;;14.10;1.85;;;;;;;;;;4986432;28;20062;-73
2022/12/07 04:49:18;;;;;;;19.40;2.47;;;;;;;;;;5001679;28;20026;-73
2022/12/07 04:51:46;;;;;;;28.80;3.22;;;;;;;;;;4999632;28;20037;-74
2022/12/07 04:54:13;;;;;;;21.80;3.45;;;;;;;;;;4985092;28;20148;-74
2022/12/07 04:56:38;;;;;;;23.02;3.58;;;;;;;;;;5003662;28;20830;-73
2022/12/07 04:59:04;;;;;;;17.33;2.60;;;;;;;;;;5001187;28;20144;-73
2022/12/07 05:01:29;;;;;;;20.40;2.22;;;;;;;;;;5002434;28;20090;-73
2022/12/07 05:03:55;;;;;;;17.40;2.90;;;;;;;;;;4998283;28;20118;-71
2022/12/07 05:06:20;;;;;;;12.90;1.88;;;;;;;;;;5000634;28;20060;-73
2022/12/07 05:08:46;;;;;;;23.50;3.13;;;;;;;;;;4984267;28;20025;-72
2022/12/07 05:11:37;;;;;;;21.55;3.28;;;;;;;;;;5002790;28;22558;-74
2022/12/07 05:14:01;;;;;;;17.13;2.75;;;;;;;;;;5001160;28;20048;-74
2022/12/07 05:16:26;;;;;;;15.20;2.10;;;;;;;;;;4968637;28;20032;-74
2022/12/07 05:18:52;;;;;;;15.57;1.95;;;;;;;;;;4999760;28;20035;-74
2022/12/07 05:21:17;;;;;;;12.30;1.95;;;;;;;;;;5000183;28;20218;-75
2022/12/07 05:23:43;;;;;;;14.13;2.13;;;;;;;;;;4977921;28;20037;-73
2022/12/07 05:26:08;;;;;;;23.95;2.58;;;;;;;;;;5000606;28;20035;-74
2022/12/07 05:28:33;;;;;;;19.23;2.90;;;;;;;;;;4999139;28;20033;-76
2022/12/07 05:31:01;;;;;;;22.23;2.47;;;;;;;;;;5001066;28;20916;-75
2022/12/07 05:33:27;;;;;;;25.67;3.20;;;;;;;;;;4998417;28;20554;-75
2022/12/07 05:35:53;;;;;;;16.95;2.53;;;;;;;;;;4998016;28;20064;-74
2022/12/07 05:38:18;;;;;;;20.45;2.40;;;;;;;;;;4984422;28;20048;-75
2022/12/07 05:40:43;;;;;;;16.92;2.15;;;;;;;;;;4999759;28;20046;-75
2022/12/07 05:43:08;;;;;;;21.17;3.60;;;;;;;;;;5001066;28;20044;-74
2022/12/07 05:45:34;;;;;;;16.63;2.65;;;;;;;;;;4983611;28;20036;-74
2022/12/07 05:48:00;;;;;;;24.45;3.65;;;;;;;;;;4999378;28;20063;-74
2022/12/07 05:50:25;;;;;;;23.85;3.60;;;;;;;;;;4998614;28;20049;-73
2022/12/07 05:52:50;;;;;;;24.30;2.75;;;;;;;;;;4999530;28;20052;-74
2022/12/07 05:55:16;;;;;;;16.95;2.67;;;;;;;;;;5000028;28;20045;-74
2022/12/07 05:59:22;;;;;;;19.55;2.20;;;;;;;;;;4998382;28;21229;-74
2022/12/07 06:00:26;;;;;;;15.23;2.65;;;;;;;;;;4999699;28;20048;-76
2022/12/07 06:02:52;;;;;;;23.35;3.67;;;;;;;;;;4998728;28;20033;-73
2022/12/07 06:05:17;;;;;;;16.27;2.53;;;;;;;;;;4997998;28;20041;-73
2022/12/07 06:07:43;;;;;;;14.65;1.85;;;;;;;;;;5000062;28;20041;-74
2022/12/07 06:10:08;;;;;;;19.35;2.10;;;;;;;;;;5000467;28;20041;-73
2022/12/07 06:12:33;;;;;;;12.60;2.35;;;;;;;;;;4998444;28;20153;-75
2022/12/07 06:14:59;;;;;;;12.63;1.90;;;;;;;;;;4979414;28;20151;-72
2022/12/07 06:17:25;;;;;;;20.17;2.72;;;;;;;;;;4999517;28;20792;-69
2022/12/07 06:19:50;;;;;;;13.05;2.28;;;;;;;;;;4999394;28;20157;-69
2022/12/07 06:22:16;;;;;;;20.73;3.20;;;;;;;;;;4981727;28;20037;-69
2022/12/07 06:24:42;;;;;;;19.80;2.47;;;;;;;;;;4994925;28;20122;-69
2022/12/07 06:27:07;;;;;;;23.20;2.90;;;;;;;;;;4997243;28;20167;-69
2022/12/07 06:29:33;;;;;;;10.95;1.73;;;;;;;;;;5000790;28;20045;-68
2022/12/07 06:31:58;;;;;;;18.40;2.22;;;;;;;;;;4999160;28;20063;-68
2022/12/07 06:34:24;;;;;;;18.02;2.10;;;;;;;;;;4999067;28;20065;-67
2022/12/07 06:36:54;;;;;;;20.40;2.88;;;;;;;;;;4998114;28;20030;-69
2022/12/07 06:39:24;;;;;;;19.52;3.05;;;;;;;;;;5000555;28;20613;-69
2022/12/07 06:41:49;;;;;;;25.17;3.03;;;;;;;;;;5001720;28;20623;-68
2022/12/07 06:44:14;;;;;;;15.23;2.53;;;;;;;;;;4983611;28;20039;-68
2022/12/07 06:46:42;;;;;;;15.35;2.35;;;;;;;;;;5001804;28;20033;-68
2022/12/07 06:49:07;;;;;;;19.02;2.78;;;;;;;;;;4976080;28;20036;-68
2022/12/07 06:51:36;;;;;;;21.45;2.60;;;;;;;;;;4999251;28;20115;-68
2022/12/07 06:54:04;;;;;;;18.10;2.55;;;;;;;;;;4998138;28;20099;-68
2022/12/07 06:56:30;;;;;;;16.42;2.65;;;;;;;;;;4980566;28;20037;-69
2022/12/07 06:58:58;;;;;;;18.75;2.40;;;;;;;;;;4988217;28;20060;-68
2022/12/07 07:01:25;;;;;;;18.80;2.40;;;;;;;;;;4960115;28;20212;-66
2022/12/07 07:03:50;;;;;;;24.42;2.97;;;;;;;;;;4980812;28;20030;-68
2022/12/07 07:06:15;;;;;;;22.52;2.92;;;;;;;;;;4997405;28;20872;-69
2022/12/07 07:08:44;;;;;;;14.32;2.90;;;;;;;;;;4999241;28;20029;-68
2022/12/07 07:11:09;;;;;;;12.75;2.78;;;;;;;;;;5001633;28;20053;-68
2022/12/07 07:13:35;;;;;;;18.42;2.53;;;;;;;;;;5003225;28;20113;-68
2022/12/07 07:16:00;;;;;;;15.23;1.73;;;;;;;;;;5004312;28;20033;-68
2022/12/07 07:18:26;;;;;;;21.50;2.47;;;;;;;;;;4992804;28;20033;-67
2022/12/07 07:20:54;;;;;;;11.57;1.65;;;;;;;;;;5002150;28;20040;-69
2022/12/07 07:23:20;;;;;;;15.00;2.17;;;;;;;;;;5002780;28;20865;-66
2022/12/07 07:25:46;;;;;;;18.05;2.10;;;;;;;;;;5000934;28;20051;-69
2022/12/07 07:28:12;;;;;;;17.17;3.38;;;;;;;;;;4986664;28;21785;-69
2022/12/07 07:30:39;;;;;;;18.98;2.33;;;;;;;;;;4990317;28;20076;-69
2022/12/07 07:33:05;;;;;;;15.57;2.13;;;;;;;;;;5003134;28;20071;-69
2022/12/07 07:35:32;;;;;;;16.45;2.05;;;;;;;;;;5000974;28;20060;-68
2022/12/07 07:37:57;;;;;;;16.00;2.65;;;;;;;;;;4979899;28;25790;-68
2022/12/07 07:40:23;;;;;;;11.48;1.90;;;;;;;;;;4982557;28;20864;-68
2022/12/07 07:42:51;;;;;;;10.88;2.13;;;;;;;;;;5003999;28;20812;-68
2022/12/07 07:45:17;;;;;;;16.85;2.38;;;;;;;;;;5002133;28;20060;-67
2022/12/07 07:47:43;;;;;;;25.23;2.58;;;;;;;;;;5003069;28;20066;-67
2022/12/07 07:50:10;;;;;;;17.50;2.53;;;;;;;;;;5002635;28;20816;-66
2022/12/07 07:52:39;;;;;;;26.20;3.33;;;;;;;;;;4957603;28;20037;-67
2022/12/07 07:55:05;;;;;;;20.95;2.90;;;;;;;;;;4979245;28;20041;-67
2022/12/07 07:57:30;;;;;;;15.18;2.70;;;;;;;;;;4995491;28;20075;-67
2022/12/07 07:59:56;;;;;;;18.92;2.20;;;;;;;;;;4996273;28;20409;-68
2022/12/07 08:02:24;;;;;;;15.55;2.13;;;;;;;;;;5001434;28;20044;-65
2022/12/07 08:04:49;;;;;;;22.13;3.05;;;;;;;;;;4963755;28;20112;-65
2022/12/07 08:07:15;;;;;;;15.93;2.90;;;;;;;;;;4987945;28;21830;-65
2022/12/07 08:09:41;;;;;;;12.05;2.15;;;;;;;;;;4951665;28;20667;-65
2022/12/07 08:12:06;;;;;;;8.80;1.85;;;;;;;;;;4982248;28;20102;-65
2022/12/07 08:14:31;;;;;;;14.07;2.17;;;;;;;;;;4997425;28;20545;-65
2022/12/07 08:16:57;;;;;;;17.02;2.28;;;;;;;;;;5000329;28;20064;-64
2022/12/07 08:19:25;;;;;;;19.27;2.25;;;;;;;;;;4978831;28;21735;-65
2022/12/07 08:21:50;;;;;;;15.85;2.28;;;;;;;;;;5000618;28;20047;-65
2022/12/07 08:24:16;;;;;;;16.42;2.33;;;;;;;;;;4997522;28;20557;-64
2022/12/07 08:26:44;;;;;;;12.35;2.60;;;;;;;;;;4977515;28;20271;-65
2022/12/07 08:29:09;;;;;;;18.38;3.08;;;;;;;;;;4999785;28;20036;-66
2022/12/07 08:31:36;;;;;;;18.95;2.42;;;;;;;;;;5001111;28;20103;-65
2022/12/07 08:34:04;;;;;;;21.85;2.45;;;;;;;;;;4999698;28;20536;-65
2022/12/07 08:36:31;;;;;;;15.65;2.13;;;;;;;;;;4999662;28;20043;-65
2022/12/07 08:38:57;;;;;;;16.90;1.80;;;;;;;;;;4978827;28;20045;-65
2022/12/07 08:41:22;;;;;;;18.67;2.55;;;;;;;;;;4953472;28;20119;-65
2022/12/07 08:43:47;;;;;;;17.05;2.78;;;;;;;;;;4992727;28;20044;-64
2022/12/07 08:46:21;;;;;;;12.25;2.42;;;;;;;;;;4996467;28;20037;-63
2022/12/07 08:48:49;;;;;;;17.13;2.40;;;;;;;;;;4998328;28;20033;-64
2022/12/07 08:51:14;;;;;;;22.80;3.28;;;;;;;;;;4998497;28;20053;-67
2022/12/07 08:53:40;;;;;;;21.48;3.10;;;;;;;;;;5001082;28;20041;-67
2022/12/07 08:56:06;;;;;;;15.93;2.13;;;;;;;;;;4973068;28;20033;-66
2022/12/07 08:58:33;;;;;;;10.35;1.73;;;;;;;;;;4997076;28;20434;-67
2022/12/07 09:00:58;;;;;;;14.80;2.00;;;;;;;;;;5003653;28;20033;-66
2022/12/07 09:03:23;;;;;;;11.57;2.45;;;;;;;;;;4984514;28;20045;-67
2022/12/07 09:05:49;;;;;;;8.65;1.42;;;;;;;;;;4998298;28;20206;-68
2022/12/07 09:08:14;;;;;;;9.05;1.73;;;;;;;;;;4999491;28;20216;-69
2022/12/07 09:10:40;;;;;;;13.70;1.45;;;;;;;;;;4999679;28;20040;-66
2022/12/07 09:13:06;;;;;;;9.70;1.23;;;;;;;;;;4999455;28;20320;-66
2022/12/07 09:15:32;;;;;;;13.77;1.50;;;;;;;;;;4997683;28;20125;-67
2022/12/07 09:18:02;;;;;;;11.23;1.90;;;;;;;;;;4981839;28;20168;-67
2022/12/07 09:20:27;;;;;;;10.88;1.33;;;;;;;;;;4999944;28;20041;-66
2022/12/07 09:22:52;;;;;;;18.80;2.22;;;;;;;;;;4980288;28;20047;-66
2022/12/07 09:25:18;;;;;;;18.02;2.25;;;;;;;;;;4997933;28;20068;-67
2022/12/07 09:27:43;;;;;;;20.70;3.55;;;;;;;;;;4998973;28;20602;-68
2022/12/07 09:30:08;;;;;;;17.15;2.38;;;;;;;;;;4998628;28;22296;-68
2022/12/07 09:32:34;;;;;;;19.33;2.60;;;;;;;;;;4998638;28;20045;-67
2022/12/07 09:35:00;;;;;;;21.83;2.35;;;;;;;;;;4975432;28;20037;-67
2022/12/07 09:37:25;;;;;;;14.32;2.20;;;;;;;;;;4997291;28;20211;-67
2022/12/07 09:39:53;;;;;;;20.25;2.38;;;;;;;;;;4999261;28;20147;-67
2022/12/07 09:42:21;;;;;;;27.75;2.78;;;;;;;;;;5000359;28;20760;-67
2022/12/07 09:44:46;;;;;;;22.50;2.35;;;;;;;;;;4999574;28;20250;-67
2022/12/07 09:47:11;;;;;;;13.85;2.10;;;;;;;;;;4999614;28;20042;-68
2022/12/07 09:49:39;;;;;;;18.23;2.90;;;;;;;;;;4979392;28;20101;-67
2022/12/07 09:52:07;;;;;;;16.50;2.63;;;;;;;;;;4986087;28;20048;-65
2022/12/07 09:54:35;;;;;;;18.70;2.42;;;;;;;;;;4997140;28;20037;-65
2022/12/07 09:57:00;;;;;;;29.08;4.65;;;;;;;;;;4968889;28;20135;-65
2022/12/07 09:59:26;;;;;;;21.25;2.50;;;;;;;;;;4995702;28;22387;-66
2022/12/07 10:01:51;;;;;;;16.30;2.10;;;;;;;;;;4999603;28;20723;-66
2022/12/07 10:04:19;;;;;;;15.77;2.42;;;;;;;;;;4976667;28;20037;-64
2022/12/07 10:06:46;;;;;;;17.45;2.30;;;;;;;;;;4998102;28;20041;-64
2022/12/07 10:09:12;;;;;;;14.85;2.05;;;;;;;;;;4979345;28;20301;-64
2022/12/07 10:11:58;;;;;;;27.13;2.90;;;;;;;;;;4995350;28;20132;-64
2022/12/07 10:14:25;;;;;;;19.33;3.25;;;;;;;;;;4996269;28;20040;-64
2022/12/07 10:16:51;;;;;;;21.50;2.42;;;;;;;;;;4996742;28;20041;-65
2022/12/07 10:19:18;;;;;;;11.35;1.77;;;;;;;;;;4989961;28;21284;-65
2022/12/07 10:21:59;;;;;;;16.50;3.10;;;;;;;;;;4986786;28;20041;-64
2022/12/07 10:24:24;;;;;;;18.77;2.38;;;;;;;;;;4999205;28;20037;-64
2022/12/07 10:26:53;;;;;;;14.80;2.20;;;;;;;;;;4997369;28;20145;-64
2022/12/07 10:29:38;;;;;;;12.38;1.50;;;;;;;;;;5000209;28;20029;-66
2022/12/07 10:32:23;;;;;;;18.45;2.45;;;;;;;;;;4996783;28;20049;-66
2022/12/07 10:34:48;;;;;;;17.85;2.55;;;;;;;;;;4995723;28;20122;-66
2022/12/07 10:37:16;;;;;;;14.40;2.20;;;;;;;;;;4998822;28;22296;-64
2022/12/07 10:39:49;;;;;;;12.43;1.83;;;;;;;;;;4978092;28;20049;-68
2022/12/07 10:42:25;;;;;;;13.82;1.90;;;;;;;;;;4989584;28;20041;-68
2022/12/07 10:45:07;;;;;;;10.02;1.20;;;;;;;;;;4999829;28;20029;-64
2022/12/07 10:47:34;;;;;;;13.88;1.70;;;;;;;;;;4998664;28;20961;-66
2022/12/07 10:50:06;;;;;;;23.70;2.05;;;;;;;;;;5002544;28;20045;-66
2022/12/07 10:52:37;;;;;;;15.02;2.42;;;;;;;;;;5002827;28;20045;-65
2022/12/07 10:55:09;;;;;;;19.98;2.33;;;;;;;;;;5002736;28;20037;-64
2022/12/07 10:57:49;;;;;;;14.02;1.33;;;;;;;;;;4981868;28;21017;-65
2022/12/07 11:00:22;;;;;;;12.57;1.88;;;;;;;;;;5001593;28;20765;-64
2022/12/07 11:03:06;;;;;;;18.55;2.72;;;;;;;;;;4981929;28;20748;-64
2022/12/07 11:05:43;;;;;;;15.80;2.00;;;;;;;;;;5001505;28;21229;-66
2022/12/07 11:08:36;;;;;;;16.70;2.20;;;;;;;;;;5001708;28;20033;-65
2022/12/07 11:11:25;;;;;;;10.98;1.70;;;;;;;;;;4984609;28;20938;-67
2022/12/07 11:14:09;;;;;;;11.27;2.28;;;;;;;;;;5005290;28;20775;-66
2022/12/07 11:16:41;;;;;;;15.25;2.67;;;;;;;;;;5003664;28;20037;-65
2022/12/07 11:19:07;;;;;;;;;;;;;;;;;;5004649;28;20261;-63
2022/12/07 11:21:34;;;;;;;17.40;2.20;;;;;;;;;;5000174;28;19917;-63
2022/12/07 11:24:17;;;;;;;13.35;1.75;;;;;;;;;;5002948;28;20044;-63
2022/12/07 11:26:45;;;;;;;19.88;2.30;;;;;;;;;;5004601;28;20168;-63
2022/12/07 11:29:22;;;;;;;17.90;2.58;;;;;;;;;;4982827;28;20040;-63
2022/12/07 11:32:13;;;;;;;17.27;2.00;;;;;;;;;;5002702;28;20046;-63
2022/12/07 11:34:44;;;;;;;19.13;1.90;;;;;;;;;;4956703;28;20128;-63
2022/12/07 11:37:13;;;;;;;11.35;1.65;;;;;;;;;;4976794;28;20040;-63
2022/12/07 11:39:48;;;;;;;13.45;1.85;;;;;;;;;;4994641;28;20029;-63
2022/12/07 11:42:22;;;;;;;19.45;2.47;;;;;;;;;;5000104;28;20029;-63
2022/12/07 11:44:51;;;;;;;18.05;2.30;;;;;;;;;;4991282;28;20295;-62
2022/12/07 11:47:25;;;;;;;18.63;1.83;;;;;;;;;;5000606;28;20053;-63
2022/12/07 11:49:56;;;;;;;18.45;2.90;;;;;;;;;;4980214;28;20815;-63
2022/12/07 11:52:24;;;;;;;16.30;1.75;;;;;;;;;;4997949;28;20440;-65
2022/12/07 11:54:50;;;;;;;14.88;2.17;;;;;;;;;;4996770;28;20047;-65
2022/12/07 11:57:20;;;;;;;15.80;2.35;;;;;;;;;;4981156;28;20072;-65
2022/12/07 11:59:48;;;;;;;9.00;1.40;;;;;;;;;;4986708;28;20136;-66
2022/12/07 12:02:15;;;;;;;11.55;1.90;;;;;;;;;;4996375;28;20054;-65
2022/12/07 12:04:55;;;;;;;10.38;1.33;;;;;;;;;;4994723;28;20520;-64
2022/12/07 12:07:23;;;;;;;11.95;1.50;;;;;;;;;;4995357;28;20214;-65
2022/12/07 12:09:54;;;;;;;7.15;1.13;;;;;;;;;;4981019;28;21270;-66
2022/12/07 12:12:28;;;;;;;8.63;1.30;;;;;;;;;;4998543;28;20029;-65
2022/12/07 12:14:59;;;;;;;15.07;2.10;;;;;;;;;;4998898;28;20037;-65
2022/12/07 12:18:01;;;;;;;7.80;1.50;;;;;;;;;;4998917;28;20034;-65
2022/12/07 12:20:30;;;;;;;14.15;2.03;;;;;;;;;;4917593;28;20157;-65
2022/12/07 12:22:59;;;;;;;14.13;1.85;;;;;;;;;;4963813;28;20029;-64
2022/12/07 12:25:25;;;;;;;15.32;1.77;;;;;;;;;;4999853;28;20135;-63
2022/12/07 12:27:55;;;;;;;11.25;1.45;;;;;;;;;;4999407;28;20290;-64
2022/12/07 12:30:32;;;;;;;11.43;1.98;;;;;;;;;;4978644;28;20051;-64
2022/12/07 12:33:20;;;;;;;18.85;2.70;;;;;;;;;;4999043;28;20044;-64
2022/12/07 12:35:45;;;;;;;17.08;1.90;;;;;;;;;;4972414;28;20152;-63
2022/12/07 12:38:30;;;;;;;23.55;2.97;;;;;;;;;;4995470;28;20048;-64
2022/12/07 12:40:56;;;;;;;21.13;2.70;;;;;;;;;;4997050;28;20463;-63
2022/12/07 12:43:41;;;;;;;15.85;2.30;;;;;;;;;;5001423;28;20291;-65
2022/12/07 12:46:25;;;;;;;22.75;3.08;;;;;;;;;;4999542;28;20589;-65
2022/12/07 12:48:52;;;;;;;19.52;2.40;;;;;;;;;;4999842;28;20585;-63
2022/12/07 12:51:38;;;;;;;17.35;2.20;;;;;;;;;;4976205;28;20053;-63
2022/12/07 12:54:13;;;;;;;16.15;1.90;;;;;;;;;;4995988;28;22344;-64
2022/12/07 12:56:44;;;;;;;21.38;2.95;;;;;;;;;;4997859;28;20916;-64
2022/12/07 12:59:23;;;;;;;27.23;3.00;;;;;;;;;;4977741;28;20075;-63
2022/12/07 13:02:18;;;;;;;27.67;3.25;;;;;;;;;;4997027;28;20033;-64
2022/12/07 13:04:53;;;;;;;23.80;2.33;;;;;;;;;;4966982;28;20044;-64
2022/12/07 13:07:37;;;;;;;10.85;1.63;;;;;;;;;;4995389;28;20451;-64
2022/12/07 13:10:03;;;;;;;12.40;2.38;;;;;;;;;;4996361;28;20481;-64
2022/12/07 13:12:28;;;;;;;18.42;2.75;;;;;;;;;;4997939;28;20195;-62
2022/12/07 13:14:55;;;;;;;17.60;2.20;;;;;;;;;;4995750;28;20064;-63
2022/12/07 13:17:33;;;;;;;24.25;2.78;;;;;;;;;;4997618;28;20037;-63
2022/12/07 13:20:07;;;;;;;18.15;2.72;;;;;;;;;;4998541;28;21865;-64
2022/12/07 13:22:37;;;;;;;8.68;1.50;;;;;;;;;;4983896;28;20552;-63
2022/12/07 13:25:07;;;;;;;14.35;1.90;;;;;;;;;;4998142;28;20044;-63
2022/12/07 13:27:33;;;;;;;13.77;2.30;;;;;;;;;;4999524;28;22517;-63
2022/12/07 13:29:58;;;;;;;22.05;2.22;;;;;;;;;;4983336;28;20076;-64
2022/12/07 13:32:24;;;;;;;14.60;2.28;;;;;;;;;;4997642;28;20079;-64
2022/12/07 13:34:49;;;;;;;14.77;2.00;;;;;;;;;;4999210;28;20037;-64
2022/12/07 13:37:26;;;;;;;19.02;1.73;;;;;;;;;;4997762;28;20033;-65
2022/12/07 13:39:54;;;;;;;12.90;1.70;;;;;;;;;;4997503;28;20049;-63
2022/12/07 13:42:25;;;;;;;16.10;2.50;;;;;;;;;;4979698;28;20654;-62
2022/12/07 13:44:50;;;;;;;12.83;2.00;;;;;;;;;;4995866;28;20041;-63
2022/12/07 13:47:35;;;;;;;20.83;2.92;;;;;;;;;;4997917;28;21269;-62
2022/12/07 13:50:00;;;;;;;16.17;2.72;;;;;;;;;;4997198;28;20550;-63
2022/12/07 13:52:29;;;;;;;19.88;2.45;;;;;;;;;;4998434;28;20303;-63
2022/12/07 13:54:58;;;;;;;13.98;2.28;;;;;;;;;;4997173;28;20261;-64
2022/12/07 13:57:25;;;;;;;16.20;2.50;;;;;;;;;;4997471;28;20313;-63
2022/12/07 13:59:51;;;;;;;12.23;1.98;;;;;;;;;;4997038;28;20057;-63
2022/12/07 14:02:27;;;;;;;12.98;2.03;;;;;;;;;;4997343;28;20130;-63
2022/12/07 14:05:05;;;;;;;15.65;2.13;;;;;;;;;;4996346;28;20037;-62
2022/12/07 14:07:33;;;;;;;12.65;1.45;;;;;;;;;;4994849;28;20041;-64
2022/12/07 14:10:00;;;;;;;23.48;2.85;;;;;;;;;;4958822;28;20591;-63
2022/12/07 14:12:29;;;;;;;18.67;2.30;;;;;;;;;;4998697;28;20037;-64
2022/12/07 14:14:55;;;;;;;15.57;2.15;;;;;;;;;;4998501;28;20051;-64
2022/12/07 14:17:24;;;;;;;19.08;2.15;;;;;;;;;;4996771;28;20123;-63
2022/12/07 14:19:52;;;;;;;21.10;2.83;;;;;;;;;;4999430;28;20913;-63
2022/12/07 14:22:22;;;;;;;30.20;3.90;;;;;;;;;;4997534;28;20252;-63
2022/12/07 14:24:48;;;;;;;17.60;2.05;;;;;;;;;;4996854;28;20036;-64
2022/12/07 14:27:21;;;;;;;20.98;2.63;;;;;;;;;;4996729;28;20726;-64
2022/12/07 14:29:47;;;;;;;15.02;2.50;;;;;;;;;;4997978;28;20072;-63
2022/12/07 14:32:27;;;;;;;16.63;2.33;;;;;;;;;;4987490;28;20798;-63
2022/12/07 14:35:02;;;;;;;17.17;2.92;;;;;;;;;;4998264;28;21697;-64
2022/12/07 14:37:28;;;;;;;16.52;1.98;;;;;;;;;;4991472;28;20051;-64
2022/12/07 14:39:54;;;;;;;8.38;1.80;;;;;;;;;;4992854;28;20405;-62
2022/12/07 14:42:23;;;;;;;18.17;2.35;;;;;;;;;;4981139;28;20539;-64